Time;durP1;ratioP1;P1;durP2;ratioP2;P2;SDS_P1;SDS_P2;PMS_P1;PMS_P2;Temp;Humidity;BMP_temperature;BMP_pressure;BME280_temperature;BME280_humidity;BME280_pressure;Samples;Min_cycle;Max_cycle;Signal;HPM_P1;HPM_P2
2021/10/15 00:01:32;;;;;;;;;;;;;;;;;;5036040;28;19924;-57
2021/10/15 00:03:58;;;;;;;;;;;;;;;;;;5034458;28;20280;-58
2021/10/15 00:06:23;;;;;;;;;;;;;;;;;;5038418;28;19986;-58
2021/10/15 00:08:48;;;;;;;;;;;;;;;;;;5042299;28;19921;-58
2021/10/15 00:11:14;;;;;;;;;;;;;;;;;;5048166;28;19924;-58
2021/10/15 00:13:39;;;;;;;;;;;;;;;;;;5048485;28;19924;-58
2021/10/15 00:16:05;;;;;;;;;;;;;;;;;;5043277;28;19920;-58
2021/10/15 00:18:31;;;;;;;;;;;;;;;;;;5042967;28;19923;-58
2021/10/15 00:20:56;;;;;;;;;;;;;;;;;;5043030;28;19921;-58
2021/10/15 00:23:21;;;;;;;;;;;;;;;;;;5045161;28;19924;-59
2021/10/15 00:25:47;;;;;;;;;;;;;;;;;;5039318;28;20390;-59
2021/10/15 00:28:12;;;;;;;;;;;;;;;;;;5046244;28;19920;-58
2021/10/15 00:30:37;;;;;;;;;;;;;;;;;;5042548;28;19921;-58
2021/10/15 00:33:03;;;;;;;;;;;;;;;;;;5042475;28;20294;-58
2021/10/15 00:35:33;;;;;;;;;;;;;;;;;;5042280;28;19921;-58
2021/10/15 00:37:58;;;;;;;;;;;;;;;;;;5037800;28;19924;-59
2021/10/15 00:40:24;;;;;;;;;;;;;;;;;;5042105;28;19921;-58
2021/10/15 00:42:49;;;;;;;;;;;;;;;;;;5045835;28;19912;-59
2021/10/15 00:45:14;;;;;;;;;;;;;;;;;;5049825;28;20303;-58
2021/10/15 00:47:40;;;;;;;;;;;;;;;;;;5041026;28;19920;-58
2021/10/15 00:50:06;;;;;;;;;;;;;;;;;;5046578;28;19928;-59
2021/10/15 00:52:31;;;;;;;;;;;;;;;;;;5057556;28;19956;-58
2021/10/15 00:54:57;;;;;;;;;;;;;;;;;;5040561;28;20037;-59
2021/10/15 00:57:22;;;;;;;;;;;;;;;;;;5043269;28;19912;-59
2021/10/15 00:59:47;;;;;;;;;;;;;;;;;;5041415;28;20188;-58
2021/10/15 01:02:13;;;;;;;;;;;;;;;;;;5028871;28;19920;-58
2021/10/15 01:04:39;;;;;;;;;;;;;;;;;;5028684;28;19921;-58
2021/10/15 01:07:04;;;;;;;;;;;;;;;;;;5044397;28;19956;-59
2021/10/15 01:09:33;;;;;;;;;;;;;;;;;;5024642;28;20027;-58
2021/10/15 01:12:02;;;;;;;;;;;;;;;;;;5024263;28;19917;-58
2021/10/15 01:14:27;;;;;;;;;;;;;;;;;;5025674;28;19944;-58
2021/10/15 01:16:53;;;;;;;;;;;;;;;;;;5021600;28;20291;-58
2021/10/15 01:19:18;;;;;;;;;;;;;;;;;;5021832;28;19925;-57
2021/10/15 01:21:44;;;;;;;;;;;;;;;;;;5026792;28;19977;-58
2021/10/15 01:24:09;;;;;;;;;;;;;;;;;;5026271;28;20027;-58
2021/10/15 01:26:35;;;;;;;;;;;;;;;;;;5024049;28;19929;-58
2021/10/15 01:29:00;;;;;;;;;;;;;;;;;;5024263;28;20303;-58
2021/10/15 01:31:26;;;;;;;;;;;;;;;;;;5020313;28;19925;-58
2021/10/15 01:33:54;;;;;;;;;;;;;;;;;;5026099;28;19917;-58
2021/10/15 01:36:19;;;;;;;;;;;;;;;;;;5023240;28;19996;-58
2021/10/15 01:38:44;;;;;;;;;;;;;;;;;;5022598;28;20370;-58
2021/10/15 01:41:10;;;;;;;;;;;;;;;;;;5023655;28;19916;-57
2021/10/15 01:43:35;;;;;;;;;;;;;;;;;;5023156;28;19928;-58
2021/10/15 01:46:00;;;;;;;;;;;;;;;;;;5025680;28;20423;-58
2021/10/15 01:48:26;;;;;;;;;;;;;;;;;;5016062;28;19929;-58
2021/10/15 01:50:52;;;;;;;;;;;;;;;;;;5026224;28;19924;-58
2021/10/15 01:53:17;;;;;;;;;;;;;;;;;;5025532;28;19919;-58
2021/10/15 01:55:43;;;;;;;;;;;;;;;;;;5019986;28;19927;-58
2021/10/15 01:58:08;;;;;;;;;;;;;;;;;;5023423;28;19978;-58
2021/10/15 02:00:34;;;;;;;;;;;;;;;;;;5018465;28;20407;-58
2021/10/15 02:02:59;;;;;;;;;;;;;;;;;;5020876;28;19913;-58
2021/10/15 02:05:25;;;;;;;;;;;;;;;;;;5023650;28;19925;-58
2021/10/15 02:07:51;;;;;;;;;;;;;;;;;;5022424;28;19913;-58
2021/10/15 02:10:17;;;;;;;;;;;;;;;;;;5015475;28;19936;-58
2021/10/15 02:12:42;;;;;;;;;;;;;;;;;;5023886;28;19913;-59
2021/10/15 02:15:09;;;;;;;;;;;;;;;;;;5021062;28;19917;-58
2021/10/15 02:17:34;;;;;;;;;;;;;;;;;;5022012;28;20276;-58
2021/10/15 02:20:00;;;;;;;;;;;;;;;;;;5017824;28;19927;-58
2021/10/15 02:22:25;;;;;;;;;;;;;;;;;;5023242;28;20217;-58
2021/10/15 02:24:51;;;;;;;;;;;;;;;;;;5019826;28;19913;-59
2021/10/15 02:27:16;;;;;;;;;;;;;;;;;;5020287;28;19964;-58
2021/10/15 02:29:41;;;;;;;;;;;;;;;;;;5023177;28;20288;-58
2021/10/15 02:32:07;;;;;;;;;;;;;;;;;;5040881;28;19917;-57
2021/10/15 02:34:32;;;;;;;;;;;;;;;;;;5018447;28;19960;-57
2021/10/15 02:36:58;;;;;;;;;;;;;;;;;;5016915;28;20303;-58
2021/10/15 02:39:23;;;;;;;;;;;;;;;;;;5020455;28;19917;-58
2021/10/15 02:41:48;;;;;;;;;;;;;;;;;;5021579;28;19917;-58
2021/10/15 02:44:14;;;;;;;;;;;;;;;;;;5022851;28;19963;-58
2021/10/15 02:46:40;;;;;;;;;;;;;;;;;;5017434;28;19925;-58
2021/10/15 02:49:06;;;;;;;;;;;;;;;;;;5021844;28;19920;-58
2021/10/15 02:51:31;;;;;;;;;;;;;;;;;;5019472;28;19943;-58
2021/10/15 02:53:57;;;;;;;;;;;;;;;;;;5021564;28;19976;-58
2021/10/15 02:56:22;;;;;;;;;;;;;;;;;;5016225;28;20399;-58
2021/10/15 02:58:48;;;;;;;;;;;;;;;;;;5025370;28;19945;-57
2021/10/15 03:01:13;;;;;;;;;;;;;;;;;;5021603;28;19917;-58
2021/10/15 03:03:39;;;;;;;;;;;;;;;;;;5024715;28;19959;-58
2021/10/15 03:06:04;;;;;;;;;;;;;;;;;;5021825;28;19931;-62
2021/10/15 03:08:30;;;;;;;;;;;;;;;;;;5022318;28;20281;-57
2021/10/15 03:10:55;;;;;;;;;;;;;;;;;;5018975;28;19921;-58
2021/10/15 03:13:20;;;;;;;;;;;;;;;;;;5020925;28;19921;-58
2021/10/15 03:15:46;;;;;;;;;;;;;;;;;;5021257;28;19913;-59
2021/10/15 03:18:11;;;;;;;;;;;;;;;;;;5021347;28;20007;-59
2021/10/15 03:20:37;;;;;;;;;;;;;;;;;;5017670;28;20390;-58
2021/10/15 03:23:02;;;;;;;;;;;;;;;;;;5018291;28;19925;-58
2021/10/15 03:25:28;;;;;;;;;;;;;;;;;;5020506;28;20635;-58
2021/10/15 03:27:53;;;;;;;;;;;;;;;;;;5021310;28;19921;-57
2021/10/15 03:30:19;;;;;;;;;;;;;;;;;;5022696;28;20023;-58
2021/10/15 03:32:44;;;;;;;;;;;;;;;;;;5024754;28;20358;-58
2021/10/15 03:35:09;;;;;;;;;;;;;;;;;;5024568;28;20027;-58
2021/10/15 03:37:35;;;;;;;;;;;;;;;;;;5022147;28;19924;-58
2021/10/15 03:40:00;;;;;;;;;;;;;;;;;;5026316;28;19924;-58
2021/10/15 03:42:25;;;;;;;;;;;;;;;;;;5016301;28;19936;-58
2021/10/15 03:44:51;;;;;;;;;;;;;;;;;;5016801;28;19914;-58
2021/10/15 03:47:16;;;;;;;;;;;;;;;;;;5021988;28;19913;-59
2021/10/15 03:49:42;;;;;;;;;;;;;;;;;;5019606;28;19917;-58
2021/10/15 03:52:07;;;;;;;;;;;;;;;;;;5022130;28;19929;-58
2021/10/15 03:54:32;;;;;;;;;;;;;;;;;;5023200;28;20004;-57
2021/10/15 03:56:58;;;;;;;;;;;;;;;;;;5019064;28;20410;-56
2021/10/15 03:59:23;;;;;;;;;;;;;;;;;;5021968;28;19940;-56
2021/10/15 04:01:48;;;;;;;;;;;;;;;;;;5013899;28;19917;-56
2021/10/15 04:04:14;;;;;;;;;;;;;;;;;;5018491;28;19921;-57
2021/10/15 04:06:39;;;;;;;;;;;;;;;;;;5019366;28;20438;-56
2021/10/15 04:09:05;;;;;;;;;;;;;;;;;;5019145;28;20291;-57
2021/10/15 04:11:30;;;;;;;;;;;;;;;;;;5023647;28;20029;-57
2021/10/15 04:13:55;;;;;;;;;;;;;;;;;;5018612;28;19944;-57
2021/10/15 04:16:21;;;;;;;;;;;;;;;;;;5015330;28;20108;-57
2021/10/15 04:18:46;;;;;;;;;;;;;;;;;;5019141;28;20320;-57
2021/10/15 04:21:11;;;;;;;;;;;;;;;;;;5017483;28;21551;-57
2021/10/15 04:23:37;;;;;;;;;;;;;;;;;;5019375;28;19917;-57
2021/10/15 04:26:02;;;;;;;;;;;;;;;;;;5022044;28;19913;-57
2021/10/15 04:28:28;;;;;;;;;;;;;;;;;;5021749;28;19917;-56
2021/10/15 04:30:53;;;;;;;;;;;;;;;;;;5022916;28;19923;-56
2021/10/15 04:33:18;;;;;;;;;;;;;;;;;;5021123;28;19917;-56
2021/10/15 04:35:44;;;;;;;;;;;;;;;;;;5014253;28;19917;-56
2021/10/15 04:38:09;;;;;;;;;;;;;;;;;;5021257;28;19924;-57
2021/10/15 04:40:35;;;;;;;;;;;;;;;;;;5016447;28;19939;-57
2021/10/15 04:43:00;;;;;;;;;;;;;;;;;;5023493;28;19921;-56
2021/10/15 04:45:26;;;;;;;;;;;;;;;;;;5018582;28;19928;-57
2021/10/15 04:47:51;;;;;;;;;;;;;;;;;;5022640;28;20094;-56
2021/10/15 04:50:16;;;;;;;;;;;;;;;;;;5019417;28;19983;-57
2021/10/15 04:52:42;;;;;;;;;;;;;;;;;;5024002;28;20454;-57
2021/10/15 04:55:07;;;;;;;;;;;;;;;;;;5025475;28;19921;-57
2021/10/15 04:57:33;;;;;;;;;;;;;;;;;;5026124;28;19921;-57
2021/10/15 04:59:58;;;;;;;;;;;;;;;;;;5028264;28;19920;-57
2021/10/15 05:02:23;;;;;;;;;;;;;;;;;;5019558;28;19929;-58
2021/10/15 05:04:49;;;;;;;;;;;;;;;;;;5024621;28;20376;-58
2021/10/15 05:07:14;;;;;;;;;;;;;;;;;;5022851;28;19928;-57
2021/10/15 05:09:41;;;;;;;;;;;;;;;;;;5022518;28;19923;-58
2021/10/15 05:12:13;;;;;;;;;;;;;;;;;;5027640;28;19917;-57
2021/10/15 05:14:39;;;;;;;;;;;;;;;;;;5027163;28;20115;-57
2021/10/15 05:17:04;;;;;;;;;;;;;;;;;;5021943;28;20735;-58
2021/10/15 05:19:30;;;;;;;;;;;;;;;;;;5021159;28;19917;-58
2021/10/15 05:21:55;;;;;;;;;;;;;;;;;;5021330;28;19917;-57
2021/10/15 05:24:21;;;;;;;;;;;;;;;;;;5017343;28;20281;-57
2021/10/15 05:26:46;;;;;;;;;;;;;;;;;;5020469;28;19996;-57
2021/10/15 05:29:12;;;;;;;;;;;;;;;;;;5021673;28;19921;-58
2021/10/15 05:31:37;;;;;;;;;;;;;;;;;;5021904;28;19917;-57
2021/10/15 05:34:03;;;;;;;;;;;;;;;;;;5023259;28;19925;-58
2021/10/15 05:36:28;;;;;;;;;;;;;;;;;;5020066;28;19920;-57
2021/10/15 05:38:53;;;;;;;;;;;;;;;;;;5023355;28;19925;-58
2021/10/15 05:41:19;;;;;;;;;;;;;;;;;;5020943;28;19932;-57
2021/10/15 05:43:44;;;;;;;;;;;;;;;;;;5026266;28;19917;-57
2021/10/15 05:46:10;;;;;;;;;;;;;;;;;;5019079;28;20385;-58
2021/10/15 05:48:35;;;;;;;;;;;;;;;;;;5020313;28;20380;-58
2021/10/15 05:51:01;;;;;;;;;;;;;;;;;;5020691;28;19967;-58
2021/10/15 05:53:26;;;;;;;;;;;;;;;;;;5037085;28;20426;-58
2021/10/15 05:56:05;;;;;;;;;;;;;;;;;;5021111;28;20474;-58
2021/10/15 06:01:14;;;;;;;;;;;;;;;;;;5022273;28;20726;-58
2021/10/15 06:03:42;;;;;;;;;;;;;;;;;;5022574;28;19959;-58
2021/10/15 06:14:22;;;;;;;;;;;;;;;;;;5017453;28;20054;-58
2021/10/15 06:16:50;;;;;;;;;;;;;;;;;;5022793;28;20347;-58
2021/10/15 06:19:18;;;;;;;;;;;;;;;;;;5022850;28;19928;-57
2021/10/15 06:21:44;;;;;;;;;;;;;;;;;;5019675;28;19956;-58
2021/10/15 06:24:09;;;;;;;;;;;;;;;;;;5020728;28;19944;-58
2021/10/15 06:26:35;;;;;;;;;;;;;;;;;;5022646;28;19921;-58
2021/10/15 06:29:00;;;;;;;;;;;;;;;;;;5023364;28;19943;-57
2021/10/15 06:31:25;;;;;;;;;;;;;;;;;;5025078;28;20113;-58
2021/10/15 06:33:51;;;;;;;;;;;;;;;;;;5023289;28;20295;-58
2021/10/15 06:36:16;;;;;;;;;;;;;;;;;;5017448;28;19917;-58
2021/10/15 06:38:41;;;;;;;;;;;;;;;;;;5019568;28;19913;-58
2021/10/15 06:41:07;;;;;;;;;;;;;;;;;;5019634;28;19959;-58
2021/10/15 06:43:32;;;;;;;;;;;;;;;;;;5022503;28;19935;-58
2021/10/15 06:45:57;;;;;;;;;;;;;;;;;;5019123;28;19913;-58
2021/10/15 06:48:23;;;;;;;;;;;;;;;;;;5014630;28;20380;-58
2021/10/15 06:50:48;;;;;;;;;;;;;;;;;;5022235;28;20178;-57
2021/10/15 06:53:14;;;;;;;;;;;;;;;;;;5022691;28;19917;-58
2021/10/15 06:55:39;;;;;;;;;;;;;;;;;;5017985;28;19920;-58
2021/10/15 06:58:05;;;;;;;;;;;;;;;;;;5020584;28;20020;-58
2021/10/15 07:00:30;;;;;;;;;;;;;;;;;;5023247;28;20434;-58
2021/10/15 07:02:56;;;;;;;;;;;;;;;;;;5021030;28;19921;-57
2021/10/15 07:05:21;;;;;;;;;;;;;;;;;;5014966;28;19917;-57
2021/10/15 07:07:46;;;;;;;;;;;;;;;;;;5014869;28;19917;-58
2021/10/15 07:10:12;;;;;;;;;;;;;;;;;;5025504;28;20130;-57
2021/10/15 07:12:41;;;;;;;;;;;;;;;;;;5021556;28;20368;-58
2021/10/15 07:15:07;;;;;;;;;;;;;;;;;;5020444;28;20023;-58
2021/10/15 07:17:33;;;;;;;;;;;;;;;;;;5015092;28;19963;-58
2021/10/15 07:19:58;;;;;;;;;;;;;;;;;;5019002;28;20297;-58
2021/10/15 07:22:23;;;;;;;;;;;;;;;;;;5018106;28;19964;-58
2021/10/15 07:24:49;;;;;;;;;;;;;;;;;;5023858;28;20011;-58
2021/10/15 07:27:14;;;;;;;;;;;;;;;;;;5021871;28;19948;-58
2021/10/15 07:29:40;;;;;;;;;;;;;;;;;;5024850;28;19935;-58
2021/10/15 07:32:05;;;;;;;;;;;;;;;;;;5033208;28;19921;-57
2021/10/15 07:34:31;;;;;;;;;;;;;;;;;;5020894;28;19921;-58
2021/10/15 07:36:56;;;;;;;;;;;;;;;;;;5022972;28;19917;-57
2021/10/15 07:39:21;;;;;;;;;;;;;;;;;;5017100;28;19909;-58
2021/10/15 07:41:48;;;;;;;;;;;;;;;;;;5024807;28;19967;-57
2021/10/15 07:44:14;;;;;;;;;;;;;;;;;;5024420;28;20134;-57
2021/10/15 07:46:40;;;;;;;;;;;;;;;;;;5021403;28;20452;-58
2021/10/15 07:49:08;;;;;;;;;;;;;;;;;;5022218;28;19947;-57
2021/10/15 07:51:34;;;;;;;;;;;;;;;;;;5020277;28;19958;-57
2021/10/15 07:53:59;;;;;;;;;;;;;;;;;;5020045;28;19968;-57
2021/10/15 07:56:24;;;;;;;;;;;;;;;;;;5018719;28;20351;-57
2021/10/15 07:58:50;;;;;;;;;;;;;;;;;;5020693;28;19921;-57
2021/10/15 08:01:16;;;;;;;;;;;;;;;;;;5021424;28;20391;-56
2021/10/15 08:03:41;;;;;;;;;;;;;;;;;;5023027;28;19909;-58
2021/10/15 08:06:07;;;;;;;;;;;;;;;;;;5018748;28;20038;-58
2021/10/15 08:08:32;;;;;;;;;;;;;;;;;;5017521;28;20000;-56
2021/10/15 08:10:58;;;;;;;;;;;;;;;;;;5014987;28;20360;-57
2021/10/15 08:13:23;;;;;;;;;;;;;;;;;;5020003;28;19939;-60
2021/10/15 08:15:48;;;;;;;;;;;;;;;;;;5017356;28;20379;-61
2021/10/15 08:18:14;;;;;;;;;;;;;;;;;;5020883;28;20439;-61
2021/10/15 08:20:39;;;;;;;;;;;;;;;;;;5021679;28;20017;-61
2021/10/15 08:23:04;;;;;;;;;;;;;;;;;;5021991;28;19917;-60
2021/10/15 08:25:30;;;;;;;;;;;;;;;;;;5016223;28;20462;-61
2021/10/15 08:27:56;;;;;;;;;;;;;;;;;;5018672;28;19909;-61
2021/10/15 08:30:22;;;;;;;;;;;;;;;;;;5026910;28;20288;-61
2021/10/15 08:32:48;;;;;;;;;;;;;;;;;;5029694;28;19928;-59
2021/10/15 08:35:13;;;;;;;;;;;;;;;;;;5023535;28;20024;-60
2021/10/15 08:37:39;;;;;;;;;;;;;;;;;;5042988;28;20360;-59
2021/10/15 08:40:05;;;;;;;;;;;;;;;;;;5024740;28;19920;-60
2021/10/15 08:42:31;;;;;;;;;;;;;;;;;;5022395;28;20289;-61
2021/10/15 08:44:56;;;;;;;;;;;;;;;;;;5026770;28;19921;-60
2021/10/15 08:47:22;;;;;;;;;;;;;;;;;;5018631;28;19910;-62
2021/10/15 08:49:47;;;;;;;;;;;;;;;;;;5020647;28;19931;-61
2021/10/15 08:52:13;;;;;;;;;;;;;;;;;;5020581;28;19955;-61
2021/10/15 08:54:40;;;;;;;;;;;;;;;;;;5027212;28;19917;-60
2021/10/15 08:57:06;;;;;;;;;;;;;;;;;;5028799;28;20361;-61
2021/10/15 08:59:42;;;;;;;;;;;;;;;;;;5022167;28;20032;-60
2021/10/15 09:02:16;;;;;;;;;;;;;;;;;;5027390;28;19913;-59
2021/10/15 09:05:00;;;;;;;;;;;;;;;;;;5023461;28;20092;-60
2021/10/15 09:07:26;;;;;;;;;;;;;;;;;;5022312;28;19921;-61
2021/10/15 09:10:08;;;;;;;;;;;;;;;;;;5021998;28;22279;-61
2021/10/15 09:12:41;;;;;;;;;;;;;;;;;;5022737;28;19913;-61
2021/10/15 09:15:07;;;;;;;;;;;;;;;;;;5041745;28;19919;-61
2021/10/15 09:17:36;;;;;;;;;;;;;;;;;;5021070;28;20068;-61
2021/10/15 09:20:03;;;;;;;;;;;;;;;;;;5025840;28;19924;-61
2021/10/15 09:22:30;;;;;;;;;;;;;;;;;;5030761;28;20004;-61
2021/10/15 09:25:05;;;;;;;;;;;;;;;;;;5020814;28;19921;-61
2021/10/15 09:27:36;;;;;;;;;;;;;;;;;;5019960;28;20167;-61
2021/10/15 09:30:20;;;;;;;;;;;;;;;;;;5022873;28;20003;-61
2021/10/15 09:32:49;;;;;;;;;;;;;;;;;;5022802;28;20069;-61
2021/10/15 09:35:17;;;;;;;;;;;;;;;;;;5024163;28;19917;-61
2021/10/15 09:37:44;;;;;;;;;;;;;;;;;;5025860;28;19916;-61
2021/10/15 09:40:12;;;;;;;;;;;;;;;;;;5019448;28;19913;-60
2021/10/15 09:42:41;;;;;;;;;;;;;;;;;;5024709;28;19913;-60
2021/10/15 09:45:17;;;;;;;;;;;;;;;;;;5025615;28;19921;-60
2021/10/15 09:47:43;;;;;;;;;;;;;;;;;;5024797;28;19919;-60
2021/10/15 09:50:10;;;;;;;;;;;;;;;;;;5022238;28;19909;-60
2021/10/15 09:52:43;;;;;;;;;;;;;;;;;;5022574;28;20516;-60
2021/10/15 09:55:37;;;;;;;;;;;;;;;;;;5025409;28;19913;-60
2021/10/15 09:58:09;;;;;;;;;;;;;;;;;;5017313;28;20007;-60
2021/10/15 10:00:34;;;;;;;;;;;;;;;;;;5025535;28;19909;-60
2021/10/15 10:03:00;;;;;;;;;;;;;;;;;;5026452;28;20383;-60
2021/10/15 10:05:25;;;;;;;;;;;;;;;;;;5021460;28;19925;-60
2021/10/15 10:07:52;;;;;;;;;;;;;;;;;;5029168;28;19939;-60
2021/10/15 10:10:19;;;;;;;;;;;;;;;;;;5021826;28;19916;-61
2021/10/15 10:12:45;;;;;;;;;;;;;;;;;;5027696;28;19956;-60
2021/10/15 10:15:11;;;;;;;;;;;;;;;;;;5020897;28;20010;-60
2021/10/15 10:17:57;;;;;;;;;;;;;;;;;;5021524;28;19952;-60
2021/10/15 10:20:25;;;;;;;;;;;;;;;;;;5020617;28;20195;-60
2021/10/15 10:22:57;;;;;;;;;;;;;;;;;;5021797;28;19951;-60
2021/10/15 10:25:23;;;;;;;;;;;;;;;;;;5021357;28;19909;-61
2021/10/15 10:27:49;;;;;;;;;;;;;;;;;;5035621;28;19920;-60
2021/10/15 10:30:14;;;;;;;;;;;;;;;;;;5028221;28;19913;-60
2021/10/15 10:32:40;;;;;;;;;;;;;;;;;;5022200;28;20303;-60
2021/10/15 10:35:24;;;;;;;;;;;;;;;;;;5025453;28;19960;-60
2021/10/15 10:38:10;;;;;;;;;;;;;;;;;;5022971;28;19916;-60
2021/10/15 10:40:35;;;;;;;;;;;;;;;;;;5023047;28;20020;-60
2021/10/15 10:43:01;;;;;;;;;;;;;;;;;;5021620;28;20376;-59
2021/10/15 10:45:26;;;;;;;;;;;;;;;;;;5027439;28;19943;-60
2021/10/15 10:48:01;;;;;;;;;;;;;;;;;;5020142;28;20724;-60
2021/10/15 10:50:26;;;;;;;;;;;;;;;;;;5020419;28;19969;-60
2021/10/15 10:53:12;;;;;;;;;;;;;;;;;;5043069;28;19913;-60
2021/10/15 10:55:42;;;;;;;;;;;;;;;;;;5021723;28;19962;-57
2021/10/15 10:58:27;;;;;;;;;;;;;;;;;;5018181;28;19908;-60
2021/10/15 11:01:13;;;;;;;;;;;;;;;;;;5013726;28;19928;-60
2021/10/15 11:03:39;;;;;;;;;;;;;;;;;;5016460;28;19917;-60
2021/10/15 11:06:04;;;;;;;;;;;;;;;;;;5026247;28;19972;-60
2021/10/15 11:08:30;;;;;;;;;;;;;;;;;;5022942;28;19920;-60
2021/10/15 11:11:14;;;;;;;;;;;;;;;;;;5017499;28;20411;-59
2021/10/15 11:13:39;;;;;;;;;;;;;;;;;;5020773;28;19917;-59
2021/10/15 11:16:27;;;;;;;;;;;;;;;;;;5022247;28;19924;-59
2021/10/15 11:18:52;;;;;;;;;;;;;;;;;;5024804;28;19956;-59
2021/10/15 11:21:20;;;;;;;;;;;;;;;;;;5033336;28;20407;-59
2021/10/15 11:23:45;;;;;;;;;;;;;;;;;;5019575;28;20338;-60
2021/10/15 11:26:11;;;;;;;;;;;;;;;;;;5018667;28;19909;-60
2021/10/15 11:28:36;;;;;;;;;;;;;;;;;;5016715;28;20372;-59
2021/10/15 11:31:06;;;;;;;;;;;;;;;;;;5024850;28;20355;-58
2021/10/15 11:33:36;;;;;;;;;;;;;;;;;;5023465;28;20212;-56
2021/10/15 11:36:01;;;;;;;;;;;;;;;;;;5017092;28;19963;-58
2021/10/15 11:38:28;;;;;;;;;;;;;;;;;;5025611;28;19913;-58
2021/10/15 11:40:54;;;;;;;;;;;;;;;;;;5021907;28;20224;-56
2021/10/15 11:43:24;;;;;;;;;;;;;;;;;;5019781;28;20023;-56
2021/10/15 11:45:51;;;;;;;;;;;;;;;;;;5017580;28;19920;-56
2021/10/15 11:48:18;;;;;;;;;;;;;;;;;;5022512;28;19917;-55
2021/10/15 11:50:43;;;;;;;;;;;;;;;;;;5020466;28;19924;-56
2021/10/15 11:53:09;;;;;;;;;;;;;;;;;;5017899;28;19913;-58
2021/10/15 11:55:36;;;;;;;;;;;;;;;;;;5015375;28;19917;-58
2021/10/15 11:58:18;;;;;;;;;;;;;;;;;;5021568;28;19924;-56
2021/10/15 12:01:03;;;;;;;;;;;;;;;;;;5021856;28;20379;-55
2021/10/15 12:03:34;;;;;;;;;;;;;;;;;;5017652;28;19917;-57
2021/10/15 12:06:18;;;;;;;;;;;;;;;;;;5019673;28;19924;-57
2021/10/15 12:08:44;;;;;;;;;;;;;;;;;;5020693;28;20011;-57
2021/10/15 12:11:31;;;;;;;;;;;;;;;;;;5015781;28;19920;-57
2021/10/15 12:14:00;;;;;;;;;;;;;;;;;;5025519;28;19917;-57
2021/10/15 12:16:35;;;;;;;;;;;;;;;;;;5024985;28;19984;-57
2021/10/15 12:19:03;;;;;;;;;;;;;;;;;;5023584;28;20024;-57
2021/10/15 12:21:29;;;;;;;;;;;;;;;;;;5028243;28;19913;-57
2021/10/15 12:23:55;;;;;;;;;;;;;;;;;;5018715;28;19917;-57
2021/10/15 12:26:21;;;;;;;;;;;;;;;;;;5022773;28;20277;-57
2021/10/15 12:28:46;;;;;;;;;;;;;;;;;;5021095;28;20011;-57
2021/10/15 12:31:32;;;;;;;;;;;;;;;;;;5018791;28;20008;-57
2021/10/15 12:34:15;;;;;;;;;;;;;;;;;;5019488;28;19925;-57
2021/10/15 12:36:41;;;;;;;;;;;;;;;;;;5019563;28;19964;-59
2021/10/15 12:39:17;;;;;;;;;;;;;;;;;;5039482;28;19928;-58
2021/10/15 12:41:42;;;;;;;;;;;;;;;;;;5016878;28;19917;-59
2021/10/15 12:44:30;;;;;;;;;;;;;;;;;;5020623;28;19913;-59
2021/10/15 12:47:00;;;;;;;;;;;;;;;;;;5022511;28;19921;-59
2021/10/15 12:49:26;;;;;;;;;;;;;;;;;;5019334;28;20235;-59
2021/10/15 12:51:52;;;;;;;;;;;;;;;;;;5016902;28;19921;-59
2021/10/15 12:54:36;;;;;;;;;;;;;;;;;;5023279;28;20007;-59
2021/10/15 12:57:14;;;;;;;;;;;;;;;;;;5014516;28;19913;-60
2021/10/15 12:59:40;;;;;;;;;;;;;;;;;;5019898;28;19921;-59
2021/10/15 13:02:07;;;;;;;;;;;;;;;;;;5021850;28;19928;-58
2021/10/15 13:04:33;;;;;;;;;;;;;;;;;;5019318;28;20896;-59
2021/10/15 13:06:59;;;;;;;;;;;;;;;;;;5016897;28;20380;-58
2021/10/15 13:09:24;;;;;;;;;;;;;;;;;;5019817;28;19921;-59
2021/10/15 13:11:50;;;;;;;;;;;;;;;;;;5030757;28;19921;-59
2021/10/15 13:14:15;;;;;;;;;;;;;;;;;;5022151;28;20052;-58
2021/10/15 13:16:40;;;;;;;;;;;;;;;;;;5020868;28;19913;-59
2021/10/15 13:19:05;;;;;;;;;;;;;;;;;;5023883;28;19999;-59
2021/10/15 13:21:31;;;;;;;;;;;;;;;;;;5030533;28;20013;-58
2021/10/15 13:23:56;;;;;;;;;;;;;;;;;;5031108;28;19956;-59
2021/10/15 13:26:21;;;;;;;;;;;;;;;;;;5026422;28;20302;-58
2021/10/15 13:28:47;;;;;;;;;;;;;;;;;;5019449;28;19917;-59
2021/10/15 13:31:12;;;;;;;;;;;;;;;;;;5023265;28;19920;-59
2021/10/15 13:33:38;;;;;;;;;;;;;;;;;;5024183;28;19928;-59
2021/10/15 13:36:03;;;;;;;;;;;;;;;;;;5029939;28;19950;-59
2021/10/15 13:38:30;;;;;;;;;;;;;;;;;;5021823;28;20304;-59
2021/10/15 13:41:07;;;;;;;;;;;;;;;;;;5020210;28;19925;-59
2021/10/15 13:43:48;;;;;;;;;;;;;;;;;;5024137;28;20981;-59
2021/10/15 13:51:41;;;;;;;;;;;;;;;;;;5024300;28;20291;-59
2021/10/15 13:54:09;;;;;;;;;;;;;;;;;;5029149;28;19921;-59
2021/10/15 13:56:35;;;;;;;;;;;;;;;;;;5019289;28;19916;-59
2021/10/15 13:59:13;;;;;;;;;;;;;;;;;;5026229;28;19921;-59
2021/10/15 14:01:43;;;;;;;;;;;;;;;;;;5025943;28;19940;-59
2021/10/15 14:07:09;;;;;;;;;;;;;;;;;;5011963;28;20395;-59
2021/10/15 14:09:36;;;;;;;;;;;;;;;;;;5016232;28;20020;-59
2021/10/15 14:12:01;;;;;;;;;;;;;;;;;;5020706;28;19936;-59
2021/10/15 14:14:27;;;;;;;;;;;;;;;;;;5023109;28;19917;-58
2021/10/15 14:16:52;;;;;;;;;;;;;;;;;;5020172;28;20291;-57
2021/10/15 14:19:18;;;;;;;;;;;;;;;;;;5022278;28;19920;-59
2021/10/15 14:21:43;;;;;;;;;;;;;;;;;;5021884;28;19924;-59
2021/10/15 14:24:08;;;;;;;;;;;;;;;;;;5021417;28;19923;-59
2021/10/15 14:26:34;;;;;;;;;;;;;;;;;;5025953;28;19909;-59
2021/10/15 14:28:59;;;;;;;;;;;;;;;;;;5020748;28;19913;-58
2021/10/15 14:31:25;;;;;;;;;;;;;;;;;;5020796;28;19924;-58
2021/10/15 14:33:50;;;;;;;;;;;;;;;;;;5017771;28;20291;-59
2021/10/15 14:36:16;;;;;;;;;;;;;;;;;;5040564;28;19971;-59
2021/10/15 14:38:41;;;;;;;;;;;;;;;;;;5018648;28;20275;-58
2021/10/15 14:41:07;;;;;;;;;;;;;;;;;;5024001;28;19971;-58
2021/10/15 14:43:37;;;;;;;;;;;;;;;;;;5038575;28;20460;-60
2021/10/15 14:46:02;;;;;;;;;;;;;;;;;;5036178;28;19925;-67
2021/10/15 14:48:28;;;;;;;;;;;;;;;;;;5023696;28;19917;-58
2021/10/15 14:50:53;;;;;;;;;;;;;;;;;;5023272;28;19921;-58
2021/10/15 14:53:19;;;;;;;;;;;;;;;;;;5022950;28;19979;-58
2021/10/15 14:55:44;;;;;;;;;;;;;;;;;;5022521;28;20327;-57
2021/10/15 14:58:10;;;;;;;;;;;;;;;;;;5021339;28;20015;-57
2021/10/15 15:00:35;;;;;;;;;;;;;;;;;;5017511;28;19929;-57
2021/10/15 15:03:04;;;;;;;;;;;;;;;;;;5020309;28;19924;-61
2021/10/15 15:05:29;;;;;;;;;;;;;;;;;;5027368;28;19963;-58
2021/10/15 15:07:55;;;;;;;;;;;;;;;;;;5019907;28;19960;-57
2021/10/15 15:10:20;;;;;;;;;;;;;;;;;;5019636;28;20388;-57
2021/10/15 15:12:46;;;;;;;;;;;;;;;;;;5021199;28;19919;-57
2021/10/15 15:15:11;;;;;;;;;;;;;;;;;;5013958;28;19921;-57
2021/10/15 15:17:37;;;;;;;;;;;;;;;;;;5021193;28;19920;-57
2021/10/15 15:20:02;;;;;;;;;;;;;;;;;;5014628;28;19983;-57
2021/10/15 15:22:28;;;;;;;;;;;;;;;;;;5017529;28;19968;-57
2021/10/15 15:24:54;;;;;;;;;;;;;;;;;;5020496;28;20316;-58
2021/10/15 15:27:19;;;;;;;;;;;;;;;;;;5019893;28;20328;-57
2021/10/15 15:29:45;;;;;;;;;;;;;;;;;;5019594;28;20391;-57
2021/10/15 15:32:10;;;;;;;;;;;;;;;;;;5017851;28;20280;-57
2021/10/15 15:34:35;;;;;;;;;;;;;;;;;;5028363;28;19952;-58
2021/10/15 15:37:03;;;;;;;;;;;;;;;;;;5019127;28;20307;-57
2021/10/15 15:39:30;;;;;;;;;;;;;;;;;;5016259;28;19919;-57
2021/10/15 15:41:55;;;;;;;;;;;;;;;;;;5020790;28;20415;-57
2021/10/15 15:44:24;;;;;;;;;;;;;;;;;;5022529;28;19932;-57
2021/10/15 15:46:57;;;;;;;;;;;;;;;;;;5023194;28;19913;-57
2021/10/15 15:49:22;;;;;;;;;;;;;;;;;;5024675;28;19971;-57
2021/10/15 15:51:47;;;;;;;;;;;;;;;;;;5019446;28;19917;-57
2021/10/15 15:54:16;;;;;;;;;;;;;;;;;;5019321;28;19951;-59
2021/10/15 15:56:41;;;;;;;;;;;;;;;;;;5025444;28;19996;-59
2021/10/15 15:59:08;;;;;;;;;;;;;;;;;;5026349;28;20004;-59
2021/10/15 16:01:33;;;;;;;;;;;;;;;;;;5024578;28;19916;-59
2021/10/15 16:03:59;;;;;;;;;;;;;;;;;;5023153;28;19913;-59
2021/10/15 16:06:24;;;;;;;;;;;;;;;;;;5018369;28;20534;-59
2021/10/15 16:08:49;;;;;;;;;;;;;;;;;;5023782;28;20358;-58
2021/10/15 16:11:16;;;;;;;;;;;;;;;;;;5019295;28;20396;-59
2021/10/15 16:13:43;;;;;;;;;;;;;;;;;;5020549;28;19970;-59
2021/10/15 16:16:08;;;;;;;;;;;;;;;;;;5013490;28;19921;-59
2021/10/15 16:18:34;;;;;;;;;;;;;;;;;;5019983;28;20415;-57
2021/10/15 16:20:59;;;;;;;;;;;;;;;;;;5018353;28;20395;-57
2021/10/15 16:23:24;;;;;;;;;;;;;;;;;;5022160;28;19943;-57
2021/10/15 16:25:50;;;;;;;;;;;;;;;;;;5023891;28;19925;-57
2021/10/15 16:28:15;;;;;;;;;;;;;;;;;;5022319;28;19918;-57
2021/10/15 16:30:41;;;;;;;;;;;;;;;;;;5025593;28;19979;-57
2021/10/15 16:33:06;;;;;;;;;;;;;;;;;;5018254;28;20404;-57
2021/10/15 16:35:32;;;;;;;;;;;;;;;;;;5020207;28;19917;-57
2021/10/15 16:37:57;;;;;;;;;;;;;;;;;;5017799;28;20424;-57
2021/10/15 16:40:22;;;;;;;;;;;;;;;;;;5023797;28;20432;-57
2021/10/15 16:42:48;;;;;;;;;;;;;;;;;;5017596;28;19912;-58
2021/10/15 16:45:13;;;;;;;;;;;;;;;;;;5024832;28;19916;-57
2021/10/15 16:47:41;;;;;;;;;;;;;;;;;;5021994;28;19940;-58
2021/10/15 16:50:07;;;;;;;;;;;;;;;;;;5026732;28;20499;-58
2021/10/15 16:52:32;;;;;;;;;;;;;;;;;;5020746;28;19917;-58
2021/10/15 16:54:58;;;;;;;;;;;;;;;;;;5020453;28;20214;-58
2021/10/15 16:57:23;;;;;;;;;;;;;;;;;;5025598;28;19923;-58
2021/10/15 16:59:49;;;;;;;;;;;;;;;;;;5024405;28;19978;-59
2021/10/15 17:02:14;;;;;;;;;;;;;;;;;;5023583;28;19921;-59
2021/10/15 17:04:40;;;;;;;;;;;;;;;;;;5026582;28;19932;-59